createdAt,value
2023-04-25T00:00:53.345Z,94.70
2023-04-25T00:03:20.346Z,94.50
2023-04-25T00:05:47.223Z,94.50
2023-04-25T00:08:13.914Z,94.50
2023-04-25T00:10:40.579Z,94.80
2023-04-25T00:13:07.210Z,94.30
2023-04-25T00:15:33.822Z,94.70
2023-04-25T00:18:00.554Z,94.60
2023-04-25T00:20:27.227Z,94.20
2023-04-25T00:22:54.403Z,94.00
2023-04-25T00:25:21.104Z,94.40
2023-04-25T00:27:47.829Z,94.20
2023-04-25T00:30:14.992Z,93.90
2023-04-25T00:32:41.624Z,93.60
2023-04-25T00:35:08.464Z,93.60
2023-04-25T00:37:35.147Z,93.60
2023-04-25T00:40:01.740Z,93.70
2023-04-25T00:42:29.172Z,93.60
2023-04-25T00:44:56.309Z,93.80
2023-04-25T00:47:23.638Z,93.80
2023-04-25T00:49:50.455Z,93.50
2023-04-25T00:52:17.115Z,93.60
2023-04-25T00:54:44.067Z,93.30
2023-04-25T00:57:11.631Z,93.50
2023-04-25T00:59:38.570Z,93.60
2023-04-25T01:02:05.799Z,94.00
2023-04-25T01:04:32.427Z,94.10
2023-04-25T01:06:59.040Z,93.90
2023-04-25T01:09:25.815Z,94.00
2023-04-25T01:11:53.528Z,93.80
2023-04-25T01:14:20.231Z,94.10
2023-04-25T01:16:46.939Z,94.10
2023-04-25T01:19:17.375Z,94.00
2023-04-25T01:21:44.047Z,94.10
2023-04-25T01:24:10.709Z,93.90
2023-04-25T01:26:37.496Z,93.90
2023-04-25T01:29:07.376Z,93.90
2023-04-25T01:31:34.935Z,94.10
2023-04-25T01:34:01.871Z,93.90
2023-04-25T01:36:28.999Z,93.70
2023-04-25T01:38:56.131Z,93.80
2023-04-25T01:43:51.006Z,94.10
2023-04-25T01:46:17.876Z,93.90
2023-04-25T01:48:44.713Z,94.20
2023-04-25T01:51:12.558Z,94.10
2023-04-25T01:53:39.428Z,94.20
2023-04-25T01:56:06.654Z,94.30
2023-04-25T01:58:33.275Z,94.30
2023-04-25T02:00:59.942Z,94.40
2023-04-25T02:03:26.740Z,94.40
2023-04-25T02:05:53.380Z,94.50
2023-04-25T02:08:19.987Z,94.60
2023-04-25T02:10:46.604Z,94.50
2023-04-25T02:13:13.202Z,94.50
2023-04-25T02:15:39.818Z,94.40
2023-04-25T02:18:07.378Z,94.30
2023-04-25T02:20:34.090Z,94.40
2023-04-25T02:23:00.724Z,94.60
2023-04-25T02:25:27.422Z,94.60
2023-04-25T02:27:54.722Z,94.90
2023-04-25T02:30:21.354Z,94.70
2023-04-25T02:32:48.211Z,94.70
2023-04-25T02:35:16.675Z,94.50
2023-04-25T02:37:43.301Z,94.70
2023-04-25T02:40:10.128Z,94.70
2023-04-25T02:42:36.973Z,95.00
2023-04-25T02:45:03.936Z,94.80
2023-04-25T02:47:30.772Z,94.70
2023-04-25T02:49:57.562Z,94.40
2023-04-25T02:52:24.126Z,94.50
2023-04-25T02:54:50.753Z,94.40
2023-04-25T02:57:17.388Z,94.70
2023-04-25T02:59:44.053Z,95.10
2023-04-25T03:02:10.742Z,94.90
2023-04-25T03:04:37.575Z,94.90
2023-04-25T03:07:04.581Z,94.90
2023-04-25T03:09:31.154Z,95.00
2023-04-25T03:11:57.927Z,95.20
2023-04-25T03:14:24.510Z,95.10
2023-04-25T03:16:51.122Z,95.20
2023-04-25T03:19:17.968Z,95.30
2023-04-25T03:21:45.005Z,95.20
2023-04-25T03:24:12.798Z,95.20
2023-04-25T03:26:39.440Z,95.30
2023-04-25T03:29:06.302Z,95.20
2023-04-25T03:31:33.016Z,95.30
2023-04-25T03:33:59.634Z,95.30
2023-04-25T03:36:26.288Z,95.10
2023-04-25T03:38:52.885Z,95.20
2023-04-25T03:41:19.522Z,95.30
2023-04-25T03:43:46.173Z,95.30
2023-04-25T03:46:12.838Z,95.60
2023-04-25T03:48:39.558Z,95.30
2023-04-25T03:51:06.163Z,95.60
2023-04-25T03:53:32.748Z,95.20
2023-04-25T03:55:59.389Z,95.50
2023-04-25T03:58:25.964Z,95.50
2023-04-25T04:00:52.515Z,95.50
2023-04-25T04:03:19.272Z,95.30
2023-04-25T04:05:46.224Z,95.40
2023-04-25T04:08:13.121Z,95.70
2023-04-25T04:10:39.882Z,95.50
2023-04-25T04:13:06.510Z,95.70
2023-04-25T04:15:34.182Z,95.50
2023-04-25T04:18:03.890Z,95.60
2023-04-25T04:20:31.452Z,95.60
2023-04-25T04:22:58.224Z,95.60
2023-04-25T04:25:25.540Z,95.60
2023-04-25T04:27:55.760Z,95.40
2023-04-25T04:30:25.054Z,95.20
2023-04-25T04:32:52.229Z,95.40
2023-04-25T04:35:18.814Z,95.40
2023-04-25T04:37:46.733Z,95.40
2023-04-25T04:40:16.207Z,95.60
2023-04-25T04:42:43.417Z,95.90
2023-04-25T04:45:11.098Z,95.70
2023-04-25T04:47:38.209Z,95.60
2023-04-25T04:50:05.132Z,95.50
2023-04-25T04:52:31.824Z,95.10
2023-04-25T04:54:58.464Z,95.70
2023-04-25T04:57:25.076Z,95.70
2023-04-25T04:59:52.446Z,95.50
2023-04-25T05:02:19.122Z,96.20
2023-04-25T05:04:46.080Z,95.90
2023-04-25T05:07:12.704Z,95.50
2023-04-25T05:09:39.342Z,95.30
2023-04-25T05:12:06.206Z,95.30
2023-04-25T05:14:32.780Z,95.40
2023-04-25T05:16:59.489Z,95.40
2023-04-25T05:19:26.336Z,95.40
2023-04-25T05:21:53.093Z,95.40
2023-04-25T05:24:19.684Z,96.00
2023-04-25T05:26:46.309Z,95.60
2023-04-25T05:29:12.928Z,95.70
2023-04-25T05:31:39.513Z,95.70
2023-04-25T05:34:06.097Z,95.60
2023-04-25T05:36:33.443Z,95.50
2023-04-25T05:39:00.012Z,95.70
2023-04-25T05:41:26.652Z,95.80
2023-04-25T05:43:55.430Z,96.00
2023-04-25T05:46:23.963Z,96.30
2023-04-25T05:48:50.593Z,96.60
2023-04-25T05:51:19.322Z,96.40
2023-04-25T05:53:46.208Z,96.30
2023-04-25T05:56:12.800Z,96.60
2023-04-25T05:58:39.676Z,96.30
2023-04-25T06:01:06.443Z,96.40
2023-04-25T06:03:33.109Z,96.20
2023-04-25T06:05:59.989Z,96.40
2023-04-25T06:08:26.755Z,96.40
2023-04-25T06:10:53.444Z,96.80
2023-04-25T06:13:20.055Z,97.10
2023-04-25T06:15:46.653Z,96.80
2023-04-25T06:18:13.287Z,96.80
2023-04-25T06:20:39.928Z,96.40
2023-04-25T06:23:06.565Z,96.30
2023-04-25T06:25:33.156Z,96.40
2023-04-25T06:27:59.805Z,96.80
2023-04-25T06:30:26.844Z,97.00
2023-04-25T06:32:54.179Z,96.80
2023-04-25T06:35:21.754Z,96.80
2023-04-25T06:37:48.427Z,96.70
2023-04-25T06:40:15.840Z,96.80
2023-04-25T06:42:42.509Z,96.90
2023-04-25T06:45:09.292Z,97.10
2023-04-25T06:47:35.988Z,97.10
2023-04-25T06:50:02.722Z,96.80
2023-04-25T06:52:29.347Z,97.00
2023-04-25T06:54:55.967Z,97.20
2023-04-25T06:57:22.574Z,97.20
2023-04-25T06:59:49.172Z,97.60
2023-04-25T07:02:15.928Z,97.30
2023-04-25T07:04:42.640Z,97.20
2023-04-25T07:07:09.499Z,97.20
2023-04-25T07:09:36.277Z,97.20
2023-04-25T07:12:03.510Z,97.00
2023-04-25T07:14:30.092Z,97.00
2023-04-25T07:16:57.925Z,96.90
2023-04-25T07:19:27.900Z,97.20
2023-04-25T07:21:54.685Z,97.10
2023-04-25T07:24:21.353Z,96.90
2023-04-25T07:26:48.040Z,96.50
2023-04-25T07:29:18.509Z,96.20
2023-04-25T07:31:45.183Z,95.70
2023-04-25T07:34:11.889Z,95.20
2023-04-25T07:36:38.467Z,94.90
2023-04-25T07:39:05.221Z,95.50
2023-04-25T07:41:31.836Z,95.50
2023-04-25T07:43:58.489Z,95.60
2023-04-25T07:46:25.274Z,95.70
2023-04-25T07:48:52.101Z,95.60
2023-04-25T07:51:20.830Z,95.10
2023-04-25T07:53:50.162Z,95.10
2023-04-25T07:56:17.221Z,94.40
2023-04-25T07:58:43.906Z,94.30
2023-04-25T08:01:10.678Z,93.50
2023-04-25T08:03:37.616Z,94.00
2023-04-25T08:06:07.725Z,94.00
2023-04-25T08:08:34.878Z,93.40
2023-04-25T08:11:01.509Z,94.00
2023-04-25T08:13:28.110Z,94.20
2023-04-25T08:15:54.815Z,93.70
2023-04-25T08:18:21.555Z,93.90
2023-04-25T08:20:48.217Z,93.50
2023-04-25T08:23:15.257Z,93.60
2023-04-25T08:25:41.895Z,93.40
2023-04-25T08:28:08.475Z,93.40
2023-04-25T08:30:35.347Z,93.00
2023-04-25T08:33:02.397Z,92.10
2023-04-25T08:35:29.605Z,92.00
2023-04-25T08:37:56.381Z,92.00
2023-04-25T08:40:27.077Z,91.20
2023-04-25T08:42:53.999Z,91.00
2023-04-25T08:45:21.165Z,91.20
2023-04-25T08:47:49.791Z,91.20
2023-04-25T08:50:17.760Z,90.10
2023-04-25T08:52:46.835Z,90.40
2023-04-25T08:55:14.233Z,86.50
2023-04-25T08:57:44.086Z,85.90
2023-04-25T09:00:11.882Z,85.60
2023-04-25T09:02:39.786Z,86.30
2023-04-25T09:05:07.556Z,82.90
2023-04-25T09:07:34.297Z,84.20
2023-04-25T09:10:02.861Z,85.90
2023-04-25T09:12:29.938Z,82.70
2023-04-25T09:15:06.906Z,84.20
2023-04-25T09:17:33.612Z,83.30
2023-04-25T09:20:13.747Z,80.90
2023-04-25T09:22:40.606Z,82.70
2023-04-25T09:25:11.421Z,79.90
2023-04-25T09:27:49.701Z,81.90
2023-04-25T09:30:17.060Z,80.10
2023-04-25T09:32:44.425Z,77.50
2023-04-25T09:35:12.417Z,77.00
2023-04-25T09:37:41.480Z,77.70
2023-04-25T09:40:08.859Z,76.90
2023-04-25T09:42:36.372Z,77.60
2023-04-25T09:45:04.632Z,76.30
2023-04-25T09:47:31.906Z,77.10
2023-04-25T09:49:59.383Z,76.30
2023-04-25T09:52:26.446Z,74.00
2023-04-25T09:54:53.686Z,75.20
2023-04-25T09:57:25.447Z,73.00
2023-04-25T09:59:55.839Z,74.00
2023-04-25T10:02:23.790Z,74.00
2023-04-25T10:04:53.608Z,74.90
2023-04-25T10:07:22.375Z,73.70
2023-04-25T10:09:51.226Z,69.60
2023-04-25T10:12:18.088Z,72.30
2023-04-25T10:14:45.170Z,72.70
2023-04-25T10:17:15.252Z,73.20
2023-04-25T10:19:41.982Z,73.40
2023-04-25T10:22:09.795Z,72.10
2023-04-25T10:24:37.967Z,73.60
2023-04-25T10:27:05.289Z,75.20
2023-04-25T10:29:31.907Z,74.60
2023-04-25T10:31:58.539Z,75.70
2023-04-25T10:34:26.978Z,72.40
2023-04-25T10:36:53.905Z,73.50
2023-04-25T10:39:24.628Z,73.50
2023-04-25T10:41:56.156Z,73.60
2023-04-25T10:44:23.002Z,74.30
2023-04-25T10:46:49.680Z,71.10
2023-04-25T10:49:35.294Z,69.00
2023-04-25T10:52:22.229Z,69.30
2023-04-25T10:54:54.853Z,69.50
2023-04-25T10:57:40.113Z,68.30
2023-04-25T11:00:11.954Z,69.20
2023-04-25T11:02:48.942Z,68.50
2023-04-25T11:05:21.443Z,69.70
2023-04-25T11:08:06.465Z,70.10
2023-04-25T11:10:36.311Z,71.20
2023-04-25T11:13:03.274Z,71.80
2023-04-25T11:15:30.016Z,70.50
2023-04-25T11:17:56.621Z,71.20
2023-04-25T11:20:23.549Z,71.80
2023-04-25T11:22:51.647Z,71.20
2023-04-25T11:25:19.369Z,72.20
2023-04-25T11:27:52.742Z,69.40
2023-04-25T11:30:19.799Z,70.50
2023-04-25T11:32:46.593Z,69.80
2023-04-25T11:35:13.774Z,69.50
2023-04-25T11:37:41.432Z,68.90
2023-04-25T11:40:09.750Z,68.90
2023-04-25T11:42:40.577Z,68.30
2023-04-25T11:45:07.339Z,69.20
2023-04-25T11:47:34.354Z,70.50
2023-04-25T11:50:01.611Z,69.40
2023-04-25T11:52:44.298Z,70.20
2023-04-25T11:55:13.783Z,69.70
2023-04-25T11:57:41.073Z,69.90
2023-04-25T12:00:08.298Z,68.70
2023-04-25T12:02:38.597Z,69.70
2023-04-25T12:05:22.177Z,68.20
2023-04-25T12:07:56.191Z,68.80
2023-04-25T12:10:22.894Z,69.70
2023-04-25T12:12:49.546Z,70.20
2023-04-25T12:15:24.046Z,70.60
2023-04-25T12:17:51.720Z,70.70
2023-04-25T12:20:20.651Z,70.70
2023-04-25T12:22:48.859Z,70.30
2023-04-25T12:25:35.491Z,68.70
2023-04-25T12:28:21.184Z,65.30
2023-04-25T12:30:58.517Z,68.00
2023-04-25T12:33:26.040Z,66.40
2023-04-25T12:35:53.516Z,68.00
2023-04-25T12:38:23.913Z,67.00
2023-04-25T12:40:50.519Z,68.50
2023-04-25T12:43:17.178Z,69.70
2023-04-25T12:45:43.815Z,69.10
2023-04-25T12:48:10.974Z,69.10
2023-04-25T12:50:37.811Z,68.60
2023-04-25T12:53:04.878Z,68.60
2023-04-25T12:55:31.590Z,68.30
2023-04-25T12:57:58.158Z,67.80
2023-04-25T13:00:25.688Z,65.90
2023-04-25T13:02:52.576Z,65.10
2023-04-25T13:05:19.322Z,66.00
2023-04-25T13:07:46.023Z,68.20
2023-04-25T13:10:12.696Z,62.30
2023-04-25T13:12:39.297Z,62.60
2023-04-25T13:15:06.247Z,59.50
2023-04-25T13:17:32.886Z,61.00
2023-04-25T13:19:59.488Z,61.50
2023-04-25T13:22:26.136Z,63.20
2023-04-25T13:24:52.704Z,63.60
2023-04-25T13:27:19.508Z,65.00
2023-04-25T13:29:46.131Z,65.70
2023-04-25T13:32:12.826Z,65.70
2023-04-25T13:34:39.458Z,67.50
2023-04-25T13:37:06.028Z,67.70
2023-04-25T13:39:32.941Z,68.50
2023-04-25T13:41:59.623Z,68.90
2023-04-25T13:44:26.293Z,72.10
2023-04-25T13:46:53.076Z,70.20
2023-04-25T13:49:19.759Z,69.50
2023-04-25T13:51:46.385Z,68.50
2023-04-25T13:54:13.012Z,66.10
2023-04-25T13:56:39.686Z,67.10
2023-04-25T13:59:06.361Z,67.70
2023-04-25T14:01:35.297Z,68.20
2023-04-25T14:04:05.681Z,66.50
2023-04-25T14:06:32.986Z,67.40
2023-04-25T14:09:01.889Z,69.50
2023-04-25T14:11:28.514Z,68.30
2023-04-25T14:13:55.410Z,68.00
2023-04-25T14:16:22.171Z,69.00
2023-04-25T14:18:48.827Z,69.70
2023-04-25T14:21:15.634Z,68.10
2023-04-25T14:23:42.376Z,68.60
2023-04-25T14:26:12.953Z,67.80
2023-04-25T14:28:39.586Z,68.10
2023-04-25T14:31:06.340Z,69.60
2023-04-25T14:33:32.976Z,69.10
2023-04-25T14:35:59.569Z,69.50
2023-04-25T14:38:26.621Z,67.70
2023-04-25T14:40:55.009Z,69.50
2023-04-25T14:43:21.697Z,70.30
2023-04-25T14:45:48.284Z,69.10
2023-04-25T14:48:15.896Z,69.90
2023-04-25T14:50:42.618Z,69.90
2023-04-25T14:53:09.204Z,72.80
2023-04-25T14:55:36.013Z,72.30
2023-04-25T14:58:02.991Z,72.60
2023-04-25T15:00:31.388Z,73.00
2023-04-25T15:02:58.962Z,73.00
2023-04-25T15:05:26.376Z,72.10
2023-04-25T15:07:53.129Z,71.10
2023-04-25T15:10:20.379Z,73.20
2023-04-25T15:12:47.978Z,73.00
2023-04-25T15:15:22.786Z,71.40
2023-04-25T15:17:53.145Z,73.80
2023-04-25T15:20:19.799Z,72.00
2023-04-25T15:22:46.893Z,72.40
2023-04-25T15:25:13.572Z,69.60
2023-04-25T15:27:44.696Z,67.50
2023-04-25T15:30:13.453Z,68.70
2023-04-25T15:32:40.421Z,68.30
2023-04-25T15:35:07.701Z,68.70
2023-04-25T15:37:37.473Z,67.80
2023-04-25T15:40:12.108Z,68.40
2023-04-25T15:42:48.474Z,67.00
2023-04-25T15:45:17.456Z,68.30
2023-04-25T15:47:44.279Z,69.20
2023-04-25T15:50:11.455Z,69.90
2023-04-25T15:52:39.070Z,70.50
2023-04-25T15:55:06.366Z,71.40
2023-04-25T15:57:33.463Z,71.50
2023-04-25T16:00:00.230Z,71.50
2023-04-25T16:02:27.051Z,70.50
2023-04-25T16:04:53.809Z,68.90
2023-04-25T16:07:20.773Z,69.10
2023-04-25T16:09:47.387Z,69.30
2023-04-25T16:12:13.950Z,68.80
2023-04-25T16:14:40.580Z,70.70
2023-04-25T16:17:07.173Z,71.30
2023-04-25T16:19:33.843Z,68.60
2023-04-25T16:22:01.626Z,67.10
2023-04-25T16:24:28.236Z,68.80
2023-04-25T16:26:54.900Z,68.30
2023-04-25T16:29:21.484Z,68.00
2023-04-25T16:31:48.526Z,67.80
2023-04-25T16:34:15.429Z,69.30
2023-04-25T16:36:42.225Z,68.70
2023-04-25T16:39:09.639Z,68.90
2023-04-25T16:41:36.928Z,69.30
2023-04-25T16:44:03.483Z,70.00
2023-04-25T16:46:30.211Z,68.40
2023-04-25T16:48:56.849Z,68.00
2023-04-25T16:51:23.476Z,68.60
2023-04-25T16:53:50.165Z,69.60
2023-04-25T16:56:17.001Z,69.40
2023-04-25T16:58:44.089Z,68.50
2023-04-25T17:01:11.343Z,69.50
2023-04-25T17:03:38.152Z,69.70
2023-04-25T17:06:05.236Z,70.10
2023-04-25T17:08:31.816Z,70.20
2023-04-25T17:10:59.849Z,70.80
2023-04-25T17:13:30.955Z,71.10
2023-04-25T17:15:58.179Z,71.30
2023-04-25T17:18:24.962Z,71.10
2023-04-25T17:20:52.345Z,71.70
2023-04-25T17:23:19.202Z,71.80
2023-04-25T17:25:45.915Z,72.20
2023-04-25T17:28:13.071Z,71.80
2023-04-25T17:30:40.180Z,72.50
2023-04-25T17:33:07.052Z,72.30
2023-04-25T17:35:33.867Z,72.70
2023-04-25T17:38:00.543Z,71.60
2023-04-25T17:40:27.136Z,71.90
2023-04-25T17:42:53.730Z,72.90
2023-04-25T17:45:20.352Z,72.10
2023-04-25T17:47:46.960Z,72.20
2023-04-25T17:50:16.521Z,73.20
2023-04-25T17:52:44.952Z,73.60
2023-04-25T17:55:11.602Z,74.30
2023-04-25T17:57:38.248Z,73.50
2023-04-25T18:00:07.768Z,74.50
2023-04-25T18:02:36.397Z,74.20
2023-04-25T18:05:09.129Z,74.80
2023-04-25T18:07:36.653Z,75.00
2023-04-25T18:10:06.878Z,75.00
2023-04-25T18:12:34.115Z,74.70
2023-04-25T18:15:01.778Z,75.50
2023-04-25T18:17:28.518Z,75.20
2023-04-25T18:19:55.437Z,75.30
2023-04-25T18:22:22.341Z,75.80
2023-04-25T18:24:50.272Z,76.00
2023-04-25T18:27:17.310Z,76.40
2023-04-25T18:29:45.358Z,76.30
2023-04-25T18:32:12.509Z,76.40
2023-04-25T18:34:43.393Z,76.90
2023-04-25T18:37:11.794Z,77.00
2023-04-25T18:39:38.353Z,77.50
2023-04-25T18:42:06.911Z,78.20
2023-04-25T18:44:36.547Z,78.40
2023-04-25T18:47:03.282Z,77.80
2023-04-25T18:49:29.876Z,77.20
2023-04-25T18:51:57.405Z,77.30
2023-04-25T18:54:24.214Z,78.00
2023-04-25T18:56:51.277Z,78.60
2023-04-25T18:59:18.220Z,76.40
2023-04-25T19:01:44.835Z,77.50
2023-04-25T19:04:11.619Z,77.90
2023-04-25T19:06:38.353Z,76.60
2023-04-25T19:09:05.071Z,76.60
2023-04-25T19:11:31.632Z,75.70
2023-04-25T19:13:58.318Z,75.20
2023-04-25T19:16:26.284Z,75.90
2023-04-25T19:18:56.755Z,74.90
2023-04-25T19:21:23.603Z,74.80
2023-04-25T19:23:52.646Z,74.80
2023-04-25T19:26:19.625Z,75.60
2023-04-25T19:28:46.242Z,75.60
2023-04-25T19:31:13.044Z,74.60
2023-04-25T19:33:39.714Z,75.20
2023-04-25T19:36:06.897Z,75.60
2023-04-25T19:38:33.498Z,75.40
2023-04-25T19:41:00.162Z,75.20
2023-04-25T19:43:26.876Z,75.10
2023-04-25T19:45:53.659Z,75.30
2023-04-25T19:48:21.111Z,75.80
2023-04-25T19:50:47.787Z,76.50
2023-04-25T19:53:14.377Z,76.50
2023-04-25T19:55:41.223Z,76.20
2023-04-25T19:58:08.076Z,76.60
2023-04-25T20:00:34.950Z,76.30
2023-04-25T20:03:02.033Z,76.10
2023-04-25T20:05:28.717Z,77.40
2023-04-25T20:07:55.349Z,77.50
2023-04-25T20:10:22.257Z,77.90
2023-04-25T20:12:49.337Z,78.20
2023-04-25T20:15:17.131Z,78.40
2023-04-25T20:17:43.925Z,78.40
2023-04-25T20:20:11.324Z,78.90
2023-04-25T20:22:40.240Z,79.40
2023-04-25T20:25:08.239Z,79.20
2023-04-25T20:27:34.917Z,79.10
2023-04-25T20:30:03.431Z,79.90
2023-04-25T20:32:32.144Z,79.90
2023-04-25T20:34:58.761Z,80.30
2023-04-25T20:37:25.424Z,80.40
2023-04-25T20:39:52.119Z,80.30
2023-04-25T20:42:19.552Z,81.40
2023-04-25T20:47:40.777Z,80.60
2023-04-25T20:50:07.899Z,80.70
2023-04-25T20:52:35.398Z,80.90
2023-04-25T20:55:11.974Z,80.90
2023-04-25T20:57:38.678Z,80.70
2023-04-25T21:00:16.914Z,80.80
2023-04-25T21:02:43.811Z,80.70
2023-04-25T21:05:10.813Z,80.50
2023-04-25T21:07:38.132Z,81.00
2023-04-25T21:10:04.933Z,81.10
2023-04-25T21:12:31.612Z,80.10
2023-04-25T21:15:00.317Z,80.70
2023-04-25T21:17:27.371Z,80.90
2023-04-25T21:19:54.110Z,80.40
2023-04-25T21:22:21.528Z,80.90
2023-04-25T21:24:50.652Z,80.30
2023-04-25T21:27:20.090Z,80.00
2023-04-25T21:29:47.170Z,80.80
2023-04-25T21:32:16.828Z,81.30
2023-04-25T21:34:43.629Z,81.20
2023-04-25T21:37:10.575Z,81.50
2023-04-25T21:39:37.282Z,81.20
2023-04-25T21:42:07.218Z,80.70
2023-04-25T21:44:33.927Z,80.90
2023-04-25T21:47:00.655Z,80.80
2023-04-25T21:49:29.500Z,81.70
2023-04-25T21:51:56.721Z,81.80
2023-04-25T21:54:23.283Z,82.30
2023-04-25T21:56:49.888Z,81.80
2023-04-25T21:59:16.572Z,81.90
2023-04-25T22:01:43.493Z,81.80
2023-04-25T22:04:10.428Z,82.70
2023-04-25T22:06:37.320Z,82.60
2023-04-25T22:09:04.781Z,82.30
2023-04-25T22:11:31.880Z,82.40
2023-04-25T22:13:58.552Z,82.80
2023-04-25T22:16:25.212Z,82.20
2023-04-25T22:18:53.483Z,83.00
2023-04-25T22:21:20.638Z,82.90
2023-04-25T22:23:47.257Z,83.30
2023-04-25T22:26:14.341Z,83.20
2023-04-25T22:28:41.305Z,83.30
2023-04-25T22:31:08.414Z,83.40
2023-04-25T22:33:35.154Z,83.40
2023-04-25T22:36:02.017Z,83.30
2023-04-25T22:38:28.938Z,83.60
2023-04-25T22:40:55.628Z,83.50
2023-04-25T22:43:22.181Z,83.20
2023-04-25T22:45:49.275Z,84.00
2023-04-25T22:48:15.889Z,83.90
2023-04-25T22:50:42.541Z,85.00
2023-04-25T22:53:10.223Z,84.40
2023-04-25T22:55:36.923Z,85.30
2023-04-25T22:58:09.988Z,85.00
2023-04-25T23:00:37.482Z,85.30
2023-04-25T23:03:04.741Z,85.60
2023-04-25T23:05:32.708Z,86.30
2023-04-25T23:07:59.401Z,85.90
2023-04-25T23:10:27.978Z,85.90
2023-04-25T23:12:57.291Z,85.90
2023-04-25T23:15:25.688Z,86.10
2023-04-25T23:17:52.385Z,86.50
2023-04-25T23:20:19.041Z,86.70
2023-04-25T23:22:45.604Z,87.10
2023-04-25T23:25:12.768Z,87.20
2023-04-25T23:27:39.363Z,86.80
2023-04-25T23:30:06.377Z,86.70
2023-04-25T23:32:33.295Z,86.80
2023-04-25T23:34:59.917Z,86.90
2023-04-25T23:37:26.517Z,86.90
2023-04-25T23:39:53.195Z,87.20
2023-04-25T23:42:19.855Z,87.70
2023-04-25T23:44:46.566Z,87.40
2023-04-25T23:47:14.255Z,87.70
2023-04-25T23:49:41.150Z,87.90
2023-04-25T23:52:07.891Z,88.10
2023-04-25T23:54:34.582Z,88.40
2023-04-25T23:57:01.348Z,88.70
2023-04-25T23:59:28.594Z,88.60
